createdAt,value
2019-05-10T00:01:13.000Z,965.3
2019-05-10T00:02:26.000Z,965.3
2019-05-10T00:03:39.000Z,965.3
2019-05-10T00:05:01.000Z,965.3
2019-05-10T00:06:24.000Z,965.3
2019-05-10T00:07:46.000Z,965.3
2019-05-10T00:09:08.000Z,965.4
2019-05-10T00:10:31.000Z,965.3
2019-05-10T00:11:53.000Z,965.4
2019-05-10T00:13:15.000Z,965.4
2019-05-10T00:14:38.000Z,965.4
2019-05-10T00:16:00.000Z,965.4
2019-05-10T00:17:13.000Z,965.4
2019-05-10T00:18:26.000Z,965.4
2019-05-10T00:19:48.000Z,965.4
2019-05-10T00:21:10.000Z,965.4
2019-05-10T00:22:33.000Z,965.4
2019-05-10T00:23:55.000Z,965.4
2019-05-10T00:25:17.000Z,965.4
2019-05-10T00:26:40.000Z,965.4
2019-05-10T00:28:02.000Z,965.5
2019-05-10T00:29:24.000Z,965.5
2019-05-10T00:30:47.000Z,965.5
2019-05-10T00:32:00.000Z,965.5
2019-05-10T00:33:13.000Z,965.5
2019-05-10T00:34:35.000Z,965.5
2019-05-10T00:35:57.000Z,965.5
2019-05-10T00:37:19.000Z,965.6
2019-05-10T00:38:42.000Z,965.6
2019-05-10T00:40:04.000Z,965.7
2019-05-10T00:41:26.000Z,965.7
2019-05-10T00:42:49.000Z,965.7
2019-05-10T00:45:33.000Z,965.7
2019-05-10T00:46:46.000Z,965.7
2019-05-10T00:47:59.000Z,965.7
2019-05-10T00:49:22.000Z,965.7
2019-05-10T00:50:44.000Z,965.7
2019-05-10T00:52:06.000Z,965.7
2019-05-10T00:53:29.000Z,965.7
2019-05-10T00:56:13.000Z,965.7
2019-05-10T00:57:36.000Z,965.7
2019-05-10T01:00:20.000Z,965.8
2019-05-10T01:01:33.000Z,965.8
2019-05-10T01:02:46.000Z,965.8
2019-05-10T01:05:31.000Z,965.9
2019-05-10T01:06:53.000Z,965.8
2019-05-10T01:08:15.000Z,965.8
2019-05-10T01:09:38.000Z,965.8
2019-05-10T01:11:00.000Z,965.8
2019-05-10T01:12:22.000Z,965.8
2019-05-10T01:13:45.000Z,965.8
2019-05-10T01:15:07.000Z,965.9
2019-05-10T01:17:33.000Z,965.9
2019-05-10T01:18:55.000Z,965.9
2019-05-10T01:20:17.000Z,966
2019-05-10T01:21:40.000Z,966
2019-05-10T01:23:02.000Z,966
2019-05-10T01:24:24.000Z,966
2019-05-10T01:27:09.000Z,966.1
2019-05-10T01:28:31.000Z,966.1
2019-05-10T01:29:54.000Z,966.1
2019-05-10T01:31:07.000Z,966.1
2019-05-10T01:32:20.000Z,966.1
2019-05-10T01:33:42.000Z,966.1
2019-05-10T01:35:04.000Z,966.1
2019-05-10T01:36:27.000Z,966.1
2019-05-10T01:37:49.000Z,966.1
2019-05-10T01:39:11.000Z,966.1
2019-05-10T01:40:34.000Z,966.2
2019-05-10T01:41:56.000Z,966.1
2019-05-10T01:43:18.000Z,966.2
2019-05-10T01:44:40.000Z,966.2
2019-05-10T01:45:53.000Z,966.2
2019-05-10T01:47:06.000Z,966.2
2019-05-10T01:48:29.000Z,966.2
2019-05-10T01:49:51.000Z,966.2
2019-05-10T01:51:13.000Z,966.2
2019-05-10T01:52:36.000Z,966.3
2019-05-10T01:53:58.000Z,966.2
2019-05-10T01:55:20.000Z,966.3
2019-05-10T01:56:43.000Z,966.3
2019-05-10T01:58:05.000Z,966.3
2019-05-10T01:59:27.000Z,966.3
2019-05-10T02:00:40.000Z,966.3
2019-05-10T02:01:53.000Z,966.4
2019-05-10T02:04:38.000Z,966.3
2019-05-10T02:06:00.000Z,966.3
2019-05-10T02:07:22.000Z,966.4
2019-05-10T02:08:45.000Z,966.3
2019-05-10T02:10:07.000Z,966.4
2019-05-10T02:11:29.000Z,966.4
2019-05-10T02:12:52.000Z,966.4
2019-05-10T02:14:14.000Z,966.4
2019-05-10T02:15:27.000Z,966.4
2019-05-10T02:16:40.000Z,966.4
2019-05-10T02:18:02.000Z,966.4
2019-05-10T02:19:25.000Z,966.5
2019-05-10T02:22:09.000Z,966.5
2019-05-10T02:23:32.000Z,966.5
2019-05-10T02:24:54.000Z,966.5
2019-05-10T02:26:16.000Z,966.6
2019-05-10T02:27:38.000Z,966.6
2019-05-10T02:29:01.000Z,966.6
2019-05-10T02:32:49.000Z,966.6
2019-05-10T02:34:11.000Z,966.6
2019-05-10T02:35:34.000Z,966.7
2019-05-10T02:38:18.000Z,966.7
2019-05-10T02:39:41.000Z,966.7
2019-05-10T02:41:03.000Z,966.7
2019-05-10T02:43:48.000Z,966.7
2019-05-10T02:45:01.000Z,966.7
2019-05-10T02:46:13.000Z,966.7
2019-05-10T02:47:36.000Z,966.7
2019-05-10T02:48:58.000Z,966.7
2019-05-10T02:50:20.000Z,966.7
2019-05-10T02:51:43.000Z,966.7
2019-05-10T02:53:05.000Z,966.8
2019-05-10T02:54:27.000Z,966.8
2019-05-10T02:55:50.000Z,966.8
2019-05-10T02:57:12.000Z,966.8
2019-05-10T02:58:34.000Z,966.8
2019-05-10T02:59:47.000Z,966.8
2019-05-10T03:01:00.000Z,966.9
2019-05-10T03:02:23.000Z,966.9
2019-05-10T03:03:45.000Z,966.9
2019-05-10T03:05:07.000Z,966.9
2019-05-10T03:06:30.000Z,966.9
2019-05-10T03:07:52.000Z,966.9
2019-05-10T03:09:14.000Z,966.9
2019-05-10T03:10:36.000Z,966.9
2019-05-10T03:11:59.000Z,966.9
2019-05-10T03:13:21.000Z,966.9
2019-05-10T03:14:34.000Z,966.9
2019-05-10T03:15:47.000Z,966.9
2019-05-10T03:17:09.000Z,966.9
2019-05-10T03:18:32.000Z,967
2019-05-10T03:19:54.000Z,967
2019-05-10T03:22:39.000Z,967
2019-05-10T03:24:01.000Z,967
2019-05-10T03:25:23.000Z,967.1
2019-05-10T03:26:46.000Z,967
2019-05-10T03:28:08.000Z,967.1
2019-05-10T03:29:21.000Z,967.1
2019-05-10T03:30:34.000Z,967.1
2019-05-10T03:31:56.000Z,967.1
2019-05-10T03:33:18.000Z,967.2
2019-05-10T03:34:41.000Z,967.1
2019-05-10T03:36:03.000Z,967.1
2019-05-10T03:38:48.000Z,967.2
2019-05-10T03:40:10.000Z,967.2
2019-05-10T03:41:32.000Z,967.2
2019-05-10T03:42:55.000Z,967.2
2019-05-10T03:46:43.000Z,967.2
2019-05-10T03:50:50.000Z,967.3
2019-05-10T03:53:35.000Z,967.3
2019-05-10T03:54:57.000Z,967.3
2019-05-10T03:56:19.000Z,967.3
2019-05-10T03:57:41.000Z,967.3
2019-05-10T03:58:54.000Z,967.3
2019-05-10T04:00:07.000Z,967.3
2019-05-10T04:01:30.000Z,967.4
2019-05-10T04:02:52.000Z,967.4
2019-05-10T04:04:14.000Z,967.4
2019-05-10T04:05:37.000Z,967.4
2019-05-10T04:06:59.000Z,967.3
2019-05-10T04:08:21.000Z,967.4
2019-05-10T04:09:44.000Z,967.4
2019-05-10T04:11:06.000Z,967.4
2019-05-10T04:12:28.000Z,967.4
2019-05-10T04:13:41.000Z,967.5
2019-05-10T04:14:54.000Z,967.5
2019-05-10T04:17:39.000Z,967.4
2019-05-10T04:19:01.000Z,967.5
2019-05-10T04:20:23.000Z,967.5
2019-05-10T04:23:08.000Z,967.5
2019-05-10T04:25:53.000Z,967.5
2019-05-10T04:27:15.000Z,967.5
2019-05-10T04:28:28.000Z,967.5
2019-05-10T04:29:41.000Z,967.6
2019-05-10T04:31:03.000Z,967.6
2019-05-10T04:32:26.000Z,967.6
2019-05-10T04:33:48.000Z,967.6
2019-05-10T04:35:10.000Z,967.6
2019-05-10T04:37:55.000Z,967.6
2019-05-10T04:40:39.000Z,967.6
2019-05-10T04:43:15.000Z,967.6
2019-05-10T04:44:28.000Z,967.6
2019-05-10T04:47:12.000Z,967.7
2019-05-10T04:48:35.000Z,967.7
2019-05-10T04:51:19.000Z,967.7
2019-05-10T04:52:42.000Z,967.7
2019-05-10T04:54:04.000Z,967.7
2019-05-10T04:55:26.000Z,967.7
2019-05-10T04:56:49.000Z,967.7
2019-05-10T04:59:14.000Z,967.8
2019-05-10T05:00:37.000Z,967.8
2019-05-10T05:01:59.000Z,967.7
2019-05-10T05:03:21.000Z,967.8
2019-05-10T05:04:44.000Z,967.8
2019-05-10T05:06:06.000Z,967.8
2019-05-10T05:07:28.000Z,967.8
2019-05-10T05:08:51.000Z,967.8
2019-05-10T05:10:13.000Z,967.8
2019-05-10T05:11:35.000Z,967.9
2019-05-10T05:12:48.000Z,967.9
2019-05-10T05:14:01.000Z,967.9
2019-05-10T05:15:24.000Z,967.9
2019-05-10T05:18:08.000Z,967.9
2019-05-10T05:19:31.000Z,967.9
2019-05-10T05:22:15.000Z,968
2019-05-10T05:23:37.000Z,967.9
2019-05-10T05:25:00.000Z,968
2019-05-10T05:27:35.000Z,968
2019-05-10T05:28:48.000Z,968
2019-05-10T05:30:10.000Z,968
2019-05-10T05:32:55.000Z,968.1
2019-05-10T05:34:17.000Z,968.1
2019-05-10T05:35:40.000Z,968.1
2019-05-10T05:37:02.000Z,968.1
2019-05-10T05:38:24.000Z,968.2
2019-05-10T05:39:47.000Z,968.2
2019-05-10T05:41:09.000Z,968.2
2019-05-10T05:42:22.000Z,968.2
2019-05-10T05:43:35.000Z,968.2
2019-05-10T05:46:19.000Z,968.3
2019-05-10T05:49:04.000Z,968.3
2019-05-10T05:50:26.000Z,968.3
2019-05-10T05:51:49.000Z,968.3
2019-05-10T05:53:11.000Z,968.3
2019-05-10T05:54:33.000Z,968.3
2019-05-10T05:55:56.000Z,968.4
2019-05-10T05:57:09.000Z,968.3
2019-05-10T05:58:22.000Z,968.3
2019-05-10T05:59:44.000Z,968.3
2019-05-10T06:01:06.000Z,968.3
2019-05-10T06:02:29.000Z,968.3
2019-05-10T06:03:51.000Z,968.4
2019-05-10T06:05:13.000Z,968.4
2019-05-10T06:06:36.000Z,968.4
2019-05-10T06:07:58.000Z,968.4
2019-05-10T06:09:20.000Z,968.4
2019-05-10T06:10:42.000Z,968.4
2019-05-10T06:11:55.000Z,968.4
2019-05-10T06:13:08.000Z,968.4
2019-05-10T06:14:31.000Z,968.4
2019-05-10T06:17:15.000Z,968.4
2019-05-10T06:18:38.000Z,968.4
2019-05-10T06:20:00.000Z,968.4
2019-05-10T06:21:22.000Z,968.4
2019-05-10T06:22:45.000Z,968.4
2019-05-10T06:24:07.000Z,968.4
2019-05-10T06:25:29.000Z,968.4
2019-05-10T06:26:42.000Z,968.5
2019-05-10T06:27:55.000Z,968.5
2019-05-10T06:29:17.000Z,968.5
2019-05-10T06:30:40.000Z,968.5
2019-05-10T06:32:02.000Z,968.6
2019-05-10T06:33:24.000Z,968.6
2019-05-10T06:34:47.000Z,968.6
2019-05-10T06:36:09.000Z,968.6
2019-05-10T06:38:54.000Z,968.6
2019-05-10T06:41:29.000Z,968.5
2019-05-10T06:42:42.000Z,968.6
2019-05-10T06:44:04.000Z,968.6
2019-05-10T06:45:27.000Z,968.6
2019-05-10T06:46:49.000Z,968.6
2019-05-10T06:48:11.000Z,968.6
2019-05-10T06:49:34.000Z,968.6
2019-05-10T06:50:56.000Z,968.5
2019-05-10T06:52:18.000Z,968.6
2019-05-10T06:53:40.000Z,968.6
2019-05-10T06:55:03.000Z,968.7
2019-05-10T06:56:16.000Z,968.6
2019-05-10T06:57:29.000Z,968.6
2019-05-10T06:58:51.000Z,968.6
2019-05-10T07:00:13.000Z,968.7
2019-05-10T07:01:36.000Z,968.7
2019-05-10T07:02:58.000Z,968.7
2019-05-10T07:04:20.000Z,968.7
2019-05-10T07:05:43.000Z,968.7
2019-05-10T07:07:05.000Z,968.7
2019-05-10T07:08:27.000Z,968.7
2019-05-10T07:09:50.000Z,968.7
2019-05-10T07:11:03.000Z,968.6
2019-05-10T07:12:15.000Z,968.7
2019-05-10T07:15:00.000Z,968.7
2019-05-10T07:16:22.000Z,968.7
2019-05-10T07:17:45.000Z,968.7
2019-05-10T07:19:07.000Z,968.7
2019-05-10T07:20:29.000Z,968.6
2019-05-10T07:21:52.000Z,968.7
2019-05-10T07:23:14.000Z,968.7
2019-05-10T07:24:36.000Z,968.7
2019-05-10T07:25:49.000Z,968.7
2019-05-10T07:27:02.000Z,968.7
2019-05-10T07:28:25.000Z,968.7
2019-05-10T07:29:47.000Z,968.8
2019-05-10T07:31:09.000Z,968.7
2019-05-10T07:32:32.000Z,968.8
2019-05-10T07:33:54.000Z,968.8
2019-05-10T07:35:16.000Z,968.8
2019-05-10T07:36:38.000Z,968.8
2019-05-10T07:38:01.000Z,968.8
2019-05-10T07:39:23.000Z,968.8
2019-05-10T07:40:36.000Z,968.8
2019-05-10T07:41:49.000Z,968.8
2019-05-10T07:43:11.000Z,968.8
2019-05-10T07:44:34.000Z,968.8
2019-05-10T07:45:56.000Z,968.8
2019-05-10T07:47:18.000Z,968.8
2019-05-10T07:48:41.000Z,968.8
2019-05-10T07:50:03.000Z,968.8
2019-05-10T07:51:25.000Z,968.9
2019-05-10T07:52:48.000Z,968.9
2019-05-10T07:54:10.000Z,968.9
2019-05-10T07:55:23.000Z,968.9
2019-05-10T07:56:36.000Z,968.9
2019-05-10T07:57:58.000Z,968.9
2019-05-10T07:59:20.000Z,968.9
2019-05-10T08:00:43.000Z,968.9
2019-05-10T08:02:05.000Z,968.9
2019-05-10T08:03:27.000Z,969
2019-05-10T08:04:50.000Z,968.9
2019-05-10T08:06:12.000Z,969
2019-05-10T08:07:34.000Z,969
2019-05-10T08:08:57.000Z,969
2019-05-10T08:10:10.000Z,969
2019-05-10T08:11:23.000Z,969
2019-05-10T08:12:45.000Z,969
2019-05-10T08:14:07.000Z,969
2019-05-10T08:15:30.000Z,969
2019-05-10T08:16:52.000Z,969
2019-05-10T08:18:14.000Z,969
2019-05-10T08:19:36.000Z,969
2019-05-10T08:20:59.000Z,969.1
2019-05-10T08:22:21.000Z,969
2019-05-10T08:23:43.000Z,969.1
2019-05-10T08:26:09.000Z,969.1
2019-05-10T08:27:32.000Z,969.1
2019-05-10T08:28:54.000Z,969.1
2019-05-10T08:30:16.000Z,969.1
2019-05-10T08:31:39.000Z,969.1
2019-05-10T08:33:01.000Z,969.1
2019-05-10T08:34:23.000Z,969
2019-05-10T08:35:46.000Z,969.1
2019-05-10T08:37:08.000Z,969
2019-05-10T08:38:30.000Z,969
2019-05-10T08:39:43.000Z,969
2019-05-10T08:40:56.000Z,969.1
2019-05-10T08:42:18.000Z,969
2019-05-10T08:43:41.000Z,969
2019-05-10T08:45:03.000Z,969.1
2019-05-10T08:47:48.000Z,969.1
2019-05-10T08:49:10.000Z,969.2
2019-05-10T08:50:32.000Z,969.1
2019-05-10T08:51:55.000Z,969.2
2019-05-10T08:53:17.000Z,969.3
2019-05-10T08:54:30.000Z,969.3
2019-05-10T08:55:43.000Z,969.3
2019-05-10T08:57:05.000Z,969.4
2019-05-10T08:58:28.000Z,969.4
2019-05-10T08:59:50.000Z,969.4
2019-05-10T09:01:12.000Z,969.4
2019-05-10T09:02:34.000Z,969.4
2019-05-10T09:03:57.000Z,969.4
2019-05-10T09:05:19.000Z,969.4
2019-05-10T09:06:41.000Z,969.4
2019-05-10T09:08:04.000Z,969.3
2019-05-10T09:09:17.000Z,969.4
2019-05-10T09:10:30.000Z,969.3
2019-05-10T09:11:52.000Z,969.4
2019-05-10T09:13:14.000Z,969.3
2019-05-10T09:14:37.000Z,969.4
2019-05-10T09:15:59.000Z,969.4
2019-05-10T09:17:21.000Z,969.4
2019-05-10T09:18:44.000Z,969.3
2019-05-10T09:20:06.000Z,969.4
2019-05-10T09:24:04.000Z,969.4
2019-05-10T09:25:16.000Z,969.5
2019-05-10T09:26:39.000Z,969.5
2019-05-10T09:28:01.000Z,969.5
2019-05-10T09:29:23.000Z,969.6
2019-05-10T09:30:46.000Z,969.5
2019-05-10T09:32:08.000Z,969.5
2019-05-10T09:33:30.000Z,969.6
2019-05-10T09:34:53.000Z,969.6
2019-05-10T09:36:15.000Z,969.6
2019-05-10T09:38:50.000Z,969.6
2019-05-10T09:40:03.000Z,969.6
2019-05-10T09:41:26.000Z,969.6
2019-05-10T09:42:48.000Z,969.6
2019-05-10T09:44:10.000Z,969.6
2019-05-10T09:45:33.000Z,969.6
2019-05-10T09:46:55.000Z,969.6
2019-05-10T09:48:17.000Z,969.6
2019-05-10T09:49:39.000Z,969.7
2019-05-10T09:51:02.000Z,969.7
2019-05-10T09:52:24.000Z,969.6
2019-05-10T09:53:37.000Z,969.7
2019-05-10T09:54:50.000Z,969.7
2019-05-10T09:56:12.000Z,969.6
2019-05-10T09:57:35.000Z,969.6
2019-05-10T09:58:57.000Z,969.6
2019-05-10T10:00:19.000Z,969.7
2019-05-10T10:03:04.000Z,969.7
2019-05-10T10:04:26.743Z,969.7
2019-05-10T10:05:49.000Z,969.7
2019-05-10T10:07:11.000Z,969.7
2019-05-10T10:08:24.000Z,969.6
2019-05-10T10:09:37.000Z,969.7
2019-05-10T10:10:59.000Z,969.6
2019-05-10T10:12:21.000Z,969.7
2019-05-10T10:13:44.000Z,969.6
2019-05-10T10:15:06.000Z,969.6
2019-05-10T10:16:28.000Z,969.5
2019-05-10T10:17:51.000Z,969.6
2019-05-10T10:19:13.000Z,969.6
2019-05-10T10:20:35.000Z,969.6
2019-05-10T10:21:58.000Z,969.5
2019-05-10T10:23:11.000Z,969.6
2019-05-10T10:24:24.000Z,969.6
2019-05-10T10:25:46.000Z,969.6
2019-05-10T10:27:08.000Z,969.6
2019-05-10T10:28:31.000Z,969.6
2019-05-10T10:29:53.000Z,969.6
2019-05-10T10:31:15.000Z,969.6
2019-05-10T10:32:37.000Z,969.6
2019-05-10T10:34:00.000Z,969.6
2019-05-10T10:35:22.000Z,969.6
2019-05-10T10:36:44.000Z,969.7
2019-05-10T10:39:10.000Z,969.6
2019-05-10T10:40:33.000Z,969.6
2019-05-10T10:41:55.000Z,969.6
2019-05-10T10:43:17.000Z,969.5
2019-05-10T10:44:40.000Z,969.6
2019-05-10T10:46:02.000Z,969.5
2019-05-10T10:47:24.000Z,969.5
2019-05-10T10:48:47.000Z,969.6
2019-05-10T10:50:09.000Z,969.6
2019-05-10T10:51:31.000Z,969.6
2019-05-10T10:53:57.000Z,969.6
2019-05-10T10:55:19.000Z,969.6
2019-05-10T10:56:42.000Z,969.5
2019-05-10T10:58:04.000Z,969.6
2019-05-10T10:59:26.000Z,969.6
2019-05-10T11:00:49.000Z,969.5
2019-05-10T11:02:11.000Z,969.5
2019-05-10T11:03:33.000Z,969.6
2019-05-10T11:04:56.000Z,969.6
2019-05-10T11:06:18.000Z,969.6
2019-05-10T11:07:31.000Z,969.7
2019-05-10T11:08:44.000Z,969.6
2019-05-10T11:10:06.000Z,969.6
2019-05-10T11:11:29.000Z,969.7
2019-05-10T11:14:13.000Z,969.7
2019-05-10T11:15:35.000Z,969.7
2019-05-10T11:16:58.000Z,969.7
2019-05-10T11:18:20.000Z,969.7
2019-05-10T11:19:42.000Z,969.7
2019-05-10T11:21:05.000Z,969.7
2019-05-10T11:22:18.000Z,969.7
2019-05-10T11:23:31.000Z,969.7
2019-05-10T11:24:53.000Z,969.7
2019-05-10T11:26:15.000Z,969.7
2019-05-10T11:27:38.000Z,969.7
2019-05-10T11:29:00.000Z,969.7
2019-05-10T11:30:22.000Z,969.8
2019-05-10T11:31:45.000Z,969.7
2019-05-10T11:33:07.000Z,969.8
2019-05-10T11:34:29.000Z,969.8
2019-05-10T11:35:52.000Z,969.8
2019-05-10T11:37:04.000Z,969.9
2019-05-10T11:38:17.000Z,969.8
2019-05-10T11:39:40.000Z,969.7
2019-05-10T11:42:24.000Z,969.7
2019-05-10T11:43:47.000Z,969.8
2019-05-10T11:45:09.000Z,969.9
2019-05-10T11:46:31.000Z,969.9
2019-05-10T11:47:54.000Z,969.8
2019-05-10T11:49:16.000Z,969.9
2019-05-10T11:50:38.000Z,969.9
2019-05-10T11:51:51.000Z,969.9
2019-05-10T11:53:04.000Z,969.9
2019-05-10T11:54:27.000Z,969.9
2019-05-10T11:55:49.000Z,969.9
2019-05-10T11:57:11.000Z,969.9
2019-05-10T11:58:33.000Z,969.9
2019-05-10T11:59:56.000Z,969.9
2019-05-10T12:01:18.000Z,969.9
2019-05-10T12:02:40.000Z,969.8
2019-05-10T12:04:03.000Z,969.8
2019-05-10T12:05:25.000Z,969.9
2019-05-10T12:07:51.000Z,969.9
2019-05-10T12:09:13.000Z,969.9
2019-05-10T12:10:36.000Z,969.9
2019-05-10T12:11:58.000Z,969.9
2019-05-10T12:13:20.000Z,969.9
2019-05-10T12:14:43.000Z,969.9
2019-05-10T12:16:05.000Z,969.9
2019-05-10T12:17:27.000Z,969.9
2019-05-10T12:18:50.000Z,969.9
2019-05-10T12:20:12.000Z,969.9
2019-05-10T12:22:38.000Z,969.9
2019-05-10T12:24:00.000Z,969.9
2019-05-10T12:25:22.000Z,969.9
2019-05-10T12:26:45.000Z,969.9
2019-05-10T12:28:07.000Z,969.9
2019-05-10T12:29:29.000Z,970
2019-05-10T12:30:52.000Z,969.9
2019-05-10T12:32:14.000Z,970
2019-05-10T12:33:36.000Z,970
2019-05-10T12:34:59.000Z,970
2019-05-10T12:36:12.000Z,970.1
2019-05-10T12:37:25.000Z,970.1
2019-05-10T12:38:47.000Z,970.1
2019-05-10T12:40:09.000Z,970.2
2019-05-10T12:41:31.000Z,970.2
2019-05-10T12:42:54.000Z,970.2
2019-05-10T12:44:16.000Z,970.2
2019-05-10T12:47:01.000Z,970.2
2019-05-10T12:48:23.000Z,970.2
2019-05-10T12:49:45.000Z,970.3
2019-05-10T12:52:11.000Z,970.3
2019-05-10T12:53:34.000Z,970.3
2019-05-10T12:54:56.000Z,970.4
2019-05-10T12:56:18.000Z,970.4
2019-05-10T12:57:41.000Z,970.4
2019-05-10T12:59:03.000Z,970.5
2019-05-10T13:03:10.000Z,970.5
2019-05-10T13:04:32.000Z,970.4
2019-05-10T13:05:45.000Z,970.4
2019-05-10T13:08:20.000Z,970.4
2019-05-10T13:09:43.000Z,970.4
2019-05-10T13:13:50.000Z,970.4
2019-05-10T13:15:12.000Z,970.3
2019-05-10T13:16:34.000Z,970.4
2019-05-10T13:17:57.000Z,970.5
2019-05-10T13:19:19.000Z,970.4
2019-05-10T13:20:32.000Z,970.4
2019-05-10T13:21:45.000Z,970.4
2019-05-10T13:23:07.000Z,970.4
2019-05-10T13:24:30.000Z,970.4
2019-05-10T13:25:52.000Z,970.4
2019-05-10T13:27:14.000Z,970.4
2019-05-10T13:28:36.000Z,970.4
2019-05-10T13:29:59.000Z,970.4
2019-05-10T13:31:21.000Z,970.3
2019-05-10T13:32:43.000Z,970.4
2019-05-10T13:34:06.000Z,970.4
2019-05-10T13:36:32.000Z,970.4
2019-05-10T13:37:54.000Z,970.4
2019-05-10T13:39:16.000Z,970.4
2019-05-10T13:40:39.000Z,970.3
2019-05-10T13:42:01.000Z,970.4
2019-05-10T13:43:23.000Z,970.2
2019-05-10T13:44:46.000Z,970.3
2019-05-10T13:46:08.000Z,970.3
2019-05-10T13:47:30.000Z,970.2
2019-05-10T13:48:53.000Z,970.2
2019-05-10T13:50:05.000Z,970.2
2019-05-10T13:51:18.000Z,970.2
2019-05-10T13:52:41.000Z,970.2
2019-05-10T13:54:03.000Z,970.2
2019-05-10T13:56:48.000Z,970.2
2019-05-10T13:58:10.000Z,970.2
2019-05-10T13:59:32.000Z,970.2
2019-05-10T14:00:55.000Z,970.1
2019-05-10T14:02:17.000Z,970.2
2019-05-10T14:03:39.000Z,970.2
2019-05-10T14:04:52.000Z,970.1
2019-05-10T14:07:28.000Z,970.2
2019-05-10T14:08:50.000Z,970.1
2019-05-10T14:10:12.000Z,970.1
2019-05-10T14:11:34.000Z,970.1
2019-05-10T14:12:57.000Z,970.1
2019-05-10T14:14:19.000Z,970.1
2019-05-10T14:15:41.000Z,970.1
2019-05-10T14:17:04.000Z,970.1
2019-05-10T14:18:26.000Z,970.1
2019-05-10T14:20:52.000Z,970.1
2019-05-10T14:22:14.000Z,970
2019-05-10T14:23:37.000Z,970.1
2019-05-10T14:24:59.000Z,970
2019-05-10T14:27:44.000Z,970
2019-05-10T14:29:06.000Z,969.9
2019-05-10T14:31:51.000Z,969.9
2019-05-10T14:33:13.000Z,970
2019-05-10T14:34:26.000Z,970
2019-05-10T14:35:39.000Z,970
2019-05-10T14:37:01.000Z,970
2019-05-10T14:39:46.000Z,970
2019-05-10T14:41:08.000Z,970
2019-05-10T14:42:30.000Z,970.1
2019-05-10T14:43:53.000Z,970
2019-05-10T14:45:15.000Z,970
2019-05-10T14:46:37.000Z,970
2019-05-10T14:48:00.000Z,970
2019-05-10T14:50:26.000Z,969.9
2019-05-10T14:51:48.000Z,969.9
2019-05-10T14:53:10.000Z,970
2019-05-10T14:54:32.000Z,970
2019-05-10T14:55:55.000Z,970
2019-05-10T14:57:17.000Z,970
2019-05-10T14:58:39.000Z,970
2019-05-10T15:00:02.000Z,970
2019-05-10T15:01:24.000Z,970
2019-05-10T15:02:46.000Z,970.1
2019-05-10T15:03:59.000Z,970
2019-05-10T15:05:12.795Z,970.1
2019-05-10T15:06:35.000Z,970.1
2019-05-10T15:07:57.000Z,970
2019-05-10T15:09:19.000Z,970.1
2019-05-10T15:10:42.000Z,970.1
2019-05-10T15:12:04.000Z,970.1
2019-05-10T15:13:26.000Z,970.1
2019-05-10T15:16:11.000Z,970.1
2019-05-10T15:17:33.000Z,970.2
2019-05-10T15:18:46.000Z,970.2
2019-05-10T15:19:59.000Z,970.2
2019-05-10T15:21:21.000Z,970.2
2019-05-10T15:22:44.000Z,970.2
2019-05-10T15:24:06.000Z,970.2
2019-05-10T15:25:28.000Z,970.2
2019-05-10T15:26:51.000Z,970.2
2019-05-10T15:28:13.000Z,970.2
2019-05-10T15:29:35.000Z,970.2
2019-05-10T15:30:58.000Z,970.2
2019-05-10T15:32:20.000Z,970.1
2019-05-10T15:33:33.000Z,970.1
2019-05-10T15:34:46.000Z,970.1
2019-05-10T15:36:08.000Z,970.2
2019-05-10T15:37:30.000Z,970.2
2019-05-10T15:38:53.000Z,970.2
2019-05-10T15:40:15.000Z,970.2
2019-05-10T15:41:37.000Z,970.2
2019-05-10T15:43:00.000Z,970.3
2019-05-10T15:44:22.000Z,970.3
2019-05-10T15:45:44.000Z,970.3
2019-05-10T15:47:07.000Z,970.3
2019-05-10T15:48:20.000Z,970.3
2019-05-10T15:49:33.000Z,970.3
2019-05-10T15:50:55.000Z,970.3
2019-05-10T15:52:17.000Z,970.3
2019-05-10T15:53:40.000Z,970.3
2019-05-10T15:56:24.000Z,970.3
2019-05-10T15:57:47.000Z,970.3
2019-05-10T15:59:09.000Z,970.2
2019-05-10T16:00:31.000Z,970.3
2019-05-10T16:01:54.000Z,970.3
2019-05-10T16:03:06.000Z,970.3
2019-05-10T16:04:19.000Z,970.4
2019-05-10T16:05:42.000Z,970.3
2019-05-10T16:07:04.000Z,970.4
2019-05-10T16:09:49.000Z,970.5
2019-05-10T16:11:11.000Z,970.4
2019-05-10T16:12:33.000Z,970.5
2019-05-10T16:13:56.000Z,970.6
2019-05-10T16:15:18.000Z,970.6
2019-05-10T16:16:40.000Z,970.6
2019-05-10T16:17:53.000Z,970.6
2019-05-10T16:19:06.000Z,970.6
2019-05-10T16:20:29.000Z,970.6
2019-05-10T16:21:51.000Z,970.7
2019-05-10T16:23:13.000Z,970.6
2019-05-10T16:24:35.000Z,970.7
2019-05-10T16:25:58.000Z,970.7
2019-05-10T16:27:20.000Z,970.7
2019-05-10T16:28:42.000Z,970.7
2019-05-10T16:30:05.000Z,970.7
2019-05-10T16:31:27.000Z,970.7
2019-05-10T16:32:40.000Z,970.7
2019-05-10T16:33:53.000Z,970.7
2019-05-10T16:35:15.000Z,970.7
2019-05-10T16:36:38.000Z,970.6
2019-05-10T16:38:00.000Z,970.7
2019-05-10T16:40:45.000Z,970.6
2019-05-10T16:42:07.000Z,970.7
2019-05-10T16:43:29.000Z,970.6
2019-05-10T16:46:14.000Z,970.7
2019-05-10T16:47:27.000Z,970.7
2019-05-10T16:48:40.000Z,970.8
2019-05-10T16:50:02.000Z,970.8
2019-05-10T16:51:24.000Z,970.7
2019-05-10T16:52:47.000Z,970.7
2019-05-10T16:54:09.000Z,970.7
2019-05-10T16:55:31.000Z,970.7
2019-05-10T16:56:54.000Z,970.7
2019-05-10T16:58:16.000Z,970.7
2019-05-10T16:59:38.000Z,970.7
2019-05-10T17:01:01.000Z,970.7
2019-05-10T17:02:14.000Z,970.7
2019-05-10T17:03:27.000Z,970.7
2019-05-10T17:04:49.000Z,970.7
2019-05-10T17:06:11.000Z,970.7
2019-05-10T17:07:33.000Z,970.7
2019-05-10T17:08:56.000Z,970.8
2019-05-10T17:10:18.000Z,970.8
2019-05-10T17:11:40.000Z,970.8
2019-05-10T17:13:03.000Z,970.7
2019-05-10T17:14:25.000Z,970.7
2019-05-10T17:15:47.000Z,970.7
2019-05-10T17:17:00.000Z,970.7
2019-05-10T17:18:13.000Z,970.7
2019-05-10T17:19:36.000Z,970.7
2019-05-10T17:20:58.000Z,970.7
2019-05-10T17:22:20.000Z,970.7
2019-05-10T17:23:43.000Z,970.6
2019-05-10T17:25:05.000Z,970.6
2019-05-10T17:26:27.000Z,970.7
2019-05-10T17:27:50.000Z,970.7
2019-05-10T17:29:12.000Z,970.7
2019-05-10T17:30:34.000Z,970.8
2019-05-10T17:31:47.000Z,970.7
2019-05-10T17:33:00.000Z,970.7
2019-05-10T17:34:22.000Z,970.7
2019-05-10T17:35:45.000Z,970.7
2019-05-10T17:37:07.000Z,970.8
2019-05-10T17:38:29.000Z,970.8
2019-05-10T17:39:52.000Z,970.8
2019-05-10T17:41:14.000Z,970.8
2019-05-10T17:42:36.000Z,970.8
2019-05-10T17:43:59.000Z,970.8
2019-05-10T17:45:21.000Z,970.9
2019-05-10T17:46:34.000Z,970.9
2019-05-10T17:47:47.000Z,970.9
2019-05-10T17:49:09.000Z,970.9
2019-05-10T17:50:31.000Z,971
2019-05-10T17:51:54.000Z,971
2019-05-10T17:53:16.000Z,971
2019-05-10T17:54:38.000Z,971
2019-05-10T17:56:01.000Z,971
2019-05-10T17:57:23.000Z,971
2019-05-10T17:58:45.000Z,970.9
2019-05-10T18:00:08.000Z,970.9
2019-05-10T18:01:21.000Z,970.9
2019-05-10T18:02:34.000Z,970.9
2019-05-10T18:05:18.000Z,970.9
2019-05-10T18:06:41.000Z,970.9
2019-05-10T18:08:03.000Z,970.9
2019-05-10T18:09:25.000Z,970.9
2019-05-10T18:10:48.000Z,971
2019-05-10T18:12:10.000Z,971
2019-05-10T18:13:32.000Z,971
2019-05-10T18:14:54.000Z,971
2019-05-10T18:16:07.000Z,971
2019-05-10T18:17:20.000Z,971.1
2019-05-10T18:18:43.000Z,971
2019-05-10T18:20:05.000Z,971
2019-05-10T18:21:27.000Z,971
2019-05-10T18:22:50.000Z,971.1
2019-05-10T18:24:12.000Z,971.1
2019-05-10T18:25:34.000Z,971.1
2019-05-10T18:26:57.000Z,971.1
2019-05-10T18:28:19.000Z,971.1
2019-05-10T18:29:41.000Z,971.1
2019-05-10T18:30:54.000Z,971.1
2019-05-10T18:32:07.000Z,971.1
2019-05-10T18:33:29.000Z,971.1
2019-05-10T18:34:52.000Z,971.1
2019-05-10T18:36:14.000Z,971.1
2019-05-10T18:37:36.000Z,971.1
2019-05-10T18:38:59.000Z,971.1
2019-05-10T18:40:21.000Z,971.1
2019-05-10T18:41:43.000Z,971.1
2019-05-10T18:43:06.000Z,971.1
2019-05-10T18:44:28.000Z,971.1
2019-05-10T18:45:41.000Z,971.1
2019-05-10T18:46:54.000Z,971.1
2019-05-10T18:48:16.000Z,971.1
2019-05-10T18:49:39.000Z,971.1
2019-05-10T18:51:01.000Z,971.1
2019-05-10T18:52:23.000Z,971.1
2019-05-10T18:53:46.000Z,971.1
2019-05-10T18:55:08.000Z,971.1
2019-05-10T18:56:30.000Z,971.1
2019-05-10T18:57:53.000Z,971.1
2019-05-10T18:59:15.000Z,971.1
2019-05-10T19:00:28.000Z,971.2